sensor_id;sensor_type;location;lat;lon;timestamp;P1;durP1;ratioP1;P2;durP2;ratioP2
23866;SDS011;12114;53.404;-1.502;2023-03-11T00:01:52;4.90;;;1.42;;
23866;SDS011;12114;53.404;-1.502;2023-03-11T00:04:17;8.20;;;2.42;;
23866;SDS011;12114;53.404;-1.502;2023-03-11T00:06:42;4.40;;;2.00;;
23866;SDS011;12114;53.404;-1.502;2023-03-11T00:09:08;7.15;;;2.85;;
23866;SDS011;12114;53.404;-1.502;2023-03-11T00:11:33;9.40;;;3.08;;
23866;SDS011;12114;53.404;-1.502;2023-03-11T00:13:59;13.43;;;2.83;;
23866;SDS011;12114;53.404;-1.502;2023-03-11T00:16:24;8.02;;;2.83;;
23866;SDS011;12114;53.404;-1.502;2023-03-11T00:18:50;6.95;;;2.72;;
23866;SDS011;12114;53.404;-1.502;2023-03-11T00:21:15;6.57;;;2.63;;
23866;SDS011;12114;53.404;-1.502;2023-03-11T00:23:41;9.23;;;4.45;;
23866;SDS011;12114;53.404;-1.502;2023-03-11T00:26:06;7.93;;;3.55;;
23866;SDS011;12114;53.404;-1.502;2023-03-11T00:28:32;8.82;;;3.75;;
23866;SDS011;12114;53.404;-1.502;2023-03-11T00:30:57;7.22;;;3.15;;
23866;SDS011;12114;53.404;-1.502;2023-03-11T00:33:22;6.43;;;3.20;;
23866;SDS011;12114;53.404;-1.502;2023-03-11T00:35:48;9.40;;;3.17;;
23866;SDS011;12114;53.404;-1.502;2023-03-11T00:38:14;9.48;;;3.65;;
23866;SDS011;12114;53.404;-1.502;2023-03-11T00:40:40;9.85;;;3.90;;
23866;SDS011;12114;53.404;-1.502;2023-03-11T00:43:05;7.18;;;4.05;;
23866;SDS011;12114;53.404;-1.502;2023-03-11T00:45:31;5.85;;;3.65;;
23866;SDS011;12114;53.404;-1.502;2023-03-11T00:47:56;9.35;;;3.58;;
23866;SDS011;12114;53.404;-1.502;2023-03-11T00:50:25;9.80;;;3.60;;
23866;SDS011;12114;53.404;-1.502;2023-03-11T00:52:52;8.57;;;3.42;;
23866;SDS011;12114;53.404;-1.502;2023-03-11T00:55:21;5.28;;;2.65;;
23866;SDS011;12114;53.404;-1.502;2023-03-11T00:57:49;6.32;;;3.08;;
23866;SDS011;12114;53.404;-1.502;2023-03-11T01:00:15;5.65;;;2.80;;
23866;SDS011;12114;53.404;-1.502;2023-03-11T01:02:41;10.00;;;3.15;;
23866;SDS011;12114;53.404;-1.502;2023-03-11T01:05:06;8.02;;;3.25;;
23866;SDS011;12114;53.404;-1.502;2023-03-11T01:07:32;6.47;;;3.03;;
23866;SDS011;12114;53.404;-1.502;2023-03-11T01:09:58;5.57;;;3.13;;
23866;SDS011;12114;53.404;-1.502;2023-03-11T01:12:23;8.32;;;3.20;;
23866;SDS011;12114;53.404;-1.502;2023-03-11T01:14:48;7.72;;;2.70;;
23866;SDS011;12114;53.404;-1.502;2023-03-11T01:17:14;6.35;;;3.33;;
23866;SDS011;12114;53.404;-1.502;2023-03-11T01:19:39;8.20;;;3.80;;
23866;SDS011;12114;53.404;-1.502;2023-03-11T01:22:04;7.13;;;3.90;;
23866;SDS011;12114;53.404;-1.502;2023-03-11T01:24:29;8.48;;;3.70;;
23866;SDS011;12114;53.404;-1.502;2023-03-11T01:26:55;12.55;;;3.78;;
23866;SDS011;12114;53.404;-1.502;2023-03-11T01:29:20;8.27;;;3.70;;
23866;SDS011;12114;53.404;-1.502;2023-03-11T01:31:45;10.88;;;3.92;;
23866;SDS011;12114;53.404;-1.502;2023-03-11T01:34:10;6.90;;;3.78;;
23866;SDS011;12114;53.404;-1.502;2023-03-11T01:36:36;11.25;;;3.30;;
23866;SDS011;12114;53.404;-1.502;2023-03-11T01:39:02;6.05;;;2.92;;
23866;SDS011;12114;53.404;-1.502;2023-03-11T01:41:27;10.05;;;3.38;;
23866;SDS011;12114;53.404;-1.502;2023-03-11T01:43:53;6.82;;;3.22;;
23866;SDS011;12114;53.404;-1.502;2023-03-11T01:46:25;8.63;;;3.75;;
23866;SDS011;12114;53.404;-1.502;2023-03-11T01:48:55;10.85;;;3.47;;
23866;SDS011;12114;53.404;-1.502;2023-03-11T01:53:49;6.88;;;2.90;;
23866;SDS011;12114;53.404;-1.502;2023-03-11T01:56:15;6.53;;;2.75;;
23866;SDS011;12114;53.404;-1.502;2023-03-11T01:58:41;9.05;;;2.95;;
23866;SDS011;12114;53.404;-1.502;2023-03-11T02:01:09;6.38;;;2.50;;
23866;SDS011;12114;53.404;-1.502;2023-03-11T02:03:36;4.53;;;2.13;;
23866;SDS011;12114;53.404;-1.502;2023-03-11T02:06:03;6.88;;;3.03;;
23866;SDS011;12114;53.404;-1.502;2023-03-11T02:08:30;14.88;;;3.20;;
23866;SDS011;12114;53.404;-1.502;2023-03-11T02:10:58;8.25;;;2.80;;
23866;SDS011;12114;53.404;-1.502;2023-03-11T02:13:24;5.78;;;2.90;;
23866;SDS011;12114;53.404;-1.502;2023-03-11T02:15:49;6.82;;;2.63;;
23866;SDS011;12114;53.404;-1.502;2023-03-11T02:18:16;4.80;;;2.13;;
23866;SDS011;12114;53.404;-1.502;2023-03-11T02:20:49;4.88;;;2.60;;
23866;SDS011;12114;53.404;-1.502;2023-03-11T02:23:16;5.88;;;2.45;;
23866;SDS011;12114;53.404;-1.502;2023-03-11T02:25:45;5.35;;;2.28;;
23866;SDS011;12114;53.404;-1.502;2023-03-11T02:28:12;8.05;;;2.78;;
23866;SDS011;12114;53.404;-1.502;2023-03-11T02:30:40;5.88;;;2.38;;
23866;SDS011;12114;53.404;-1.502;2023-03-11T02:33:05;4.50;;;2.65;;
23866;SDS011;12114;53.404;-1.502;2023-03-11T02:35:31;10.35;;;3.05;;
23866;SDS011;12114;53.404;-1.502;2023-03-11T02:37:57;5.93;;;3.13;;
23866;SDS011;12114;53.404;-1.502;2023-03-11T02:42:48;5.72;;;2.70;;
23866;SDS011;12114;53.404;-1.502;2023-03-11T02:45:15;10.73;;;3.40;;
23866;SDS011;12114;53.404;-1.502;2023-03-11T02:47:41;7.22;;;2.90;;
23866;SDS011;12114;53.404;-1.502;2023-03-11T02:50:06;8.38;;;2.80;;
23866;SDS011;12114;53.404;-1.502;2023-03-11T02:52:33;7.57;;;3.05;;
23866;SDS011;12114;53.404;-1.502;2023-03-11T02:54:59;7.55;;;2.80;;
23866;SDS011;12114;53.404;-1.502;2023-03-11T02:57:24;9.18;;;2.80;;
23866;SDS011;12114;53.404;-1.502;2023-03-11T02:59:49;8.40;;;2.88;;
23866;SDS011;12114;53.404;-1.502;2023-03-11T03:02:15;5.85;;;3.17;;
23866;SDS011;12114;53.404;-1.502;2023-03-11T03:04:40;8.20;;;3.40;;
23866;SDS011;12114;53.404;-1.502;2023-03-11T03:07:05;6.35;;;2.95;;
23866;SDS011;12114;53.404;-1.502;2023-03-11T03:09:30;6.57;;;2.70;;
23866;SDS011;12114;53.404;-1.502;2023-03-11T03:11:56;6.95;;;2.72;;
23866;SDS011;12114;53.404;-1.502;2023-03-11T03:14:21;6.15;;;2.55;;
23866;SDS011;12114;53.404;-1.502;2023-03-11T03:16:46;7.18;;;2.90;;
23866;SDS011;12114;53.404;-1.502;2023-03-11T03:19:12;8.73;;;2.80;;
23866;SDS011;12114;53.404;-1.502;2023-03-11T03:21:37;8.73;;;2.92;;
23866;SDS011;12114;53.404;-1.502;2023-03-11T03:24:03;6.38;;;2.75;;
23866;SDS011;12114;53.404;-1.502;2023-03-11T03:26:28;8.95;;;3.45;;
23866;SDS011;12114;53.404;-1.502;2023-03-11T03:28:53;6.15;;;2.67;;
23866;SDS011;12114;53.404;-1.502;2023-03-11T03:31:18;5.57;;;2.78;;
23866;SDS011;12114;53.404;-1.502;2023-03-11T03:33:44;7.05;;;3.22;;
23866;SDS011;12114;53.404;-1.502;2023-03-11T03:36:10;7.85;;;3.20;;
23866;SDS011;12114;53.404;-1.502;2023-03-11T03:38:36;6.43;;;2.92;;
23866;SDS011;12114;53.404;-1.502;2023-03-11T03:41:01;5.57;;;3.13;;
23866;SDS011;12114;53.404;-1.502;2023-03-11T03:43:26;8.77;;;2.97;;
23866;SDS011;12114;53.404;-1.502;2023-03-11T03:45:59;9.20;;;3.30;;
23866;SDS011;12114;53.404;-1.502;2023-03-11T03:48:25;8.70;;;3.95;;
23866;SDS011;12114;53.404;-1.502;2023-03-11T03:50:51;9.32;;;3.95;;
23866;SDS011;12114;53.404;-1.502;2023-03-11T03:53:16;6.95;;;4.13;;
23866;SDS011;12114;53.404;-1.502;2023-03-11T03:55:41;11.10;;;3.85;;
23866;SDS011;12114;53.404;-1.502;2023-03-11T03:58:06;11.15;;;3.90;;
23866;SDS011;12114;53.404;-1.502;2023-03-11T04:00:32;9.68;;;4.25;;
23866;SDS011;12114;53.404;-1.502;2023-03-11T04:02:58;9.27;;;4.57;;
23866;SDS011;12114;53.404;-1.502;2023-03-11T04:05:23;9.75;;;3.58;;
23866;SDS011;12114;53.404;-1.502;2023-03-11T04:07:51;13.20;;;4.05;;
23866;SDS011;12114;53.404;-1.502;2023-03-11T04:10:16;7.53;;;2.83;;
23866;SDS011;12114;53.404;-1.502;2023-03-11T04:12:41;6.45;;;2.70;;
23866;SDS011;12114;53.404;-1.502;2023-03-11T04:15:07;9.35;;;3.25;;
23866;SDS011;12114;53.404;-1.502;2023-03-11T04:17:32;6.80;;;2.63;;
23866;SDS011;12114;53.404;-1.502;2023-03-11T04:19:57;7.30;;;2.88;;
23866;SDS011;12114;53.404;-1.502;2023-03-11T04:22:23;7.20;;;3.13;;
23866;SDS011;12114;53.404;-1.502;2023-03-11T04:24:48;7.53;;;3.28;;
23866;SDS011;12114;53.404;-1.502;2023-03-11T04:27:13;6.70;;;3.20;;
23866;SDS011;12114;53.404;-1.502;2023-03-11T04:29:38;8.98;;;3.65;;
23866;SDS011;12114;53.404;-1.502;2023-03-11T04:32:04;10.68;;;4.57;;
23866;SDS011;12114;53.404;-1.502;2023-03-11T04:34:29;10.95;;;5.18;;
23866;SDS011;12114;53.404;-1.502;2023-03-11T04:36:55;12.50;;;5.25;;
23866;SDS011;12114;53.404;-1.502;2023-03-11T04:39:20;15.20;;;6.05;;
23866;SDS011;12114;53.404;-1.502;2023-03-11T04:41:45;10.48;;;6.07;;
23866;SDS011;12114;53.404;-1.502;2023-03-11T04:44:10;14.55;;;6.35;;
23866;SDS011;12114;53.404;-1.502;2023-03-11T04:46:36;10.65;;;6.13;;
23866;SDS011;12114;53.404;-1.502;2023-03-11T04:49:01;11.20;;;4.68;;
23866;SDS011;12114;53.404;-1.502;2023-03-11T04:51:26;8.52;;;3.55;;
23866;SDS011;12114;53.404;-1.502;2023-03-11T04:53:51;7.28;;;3.50;;
23866;SDS011;12114;53.404;-1.502;2023-03-11T04:56:17;8.68;;;4.13;;
23866;SDS011;12114;53.404;-1.502;2023-03-11T04:58:42;8.32;;;4.65;;
23866;SDS011;12114;53.404;-1.502;2023-03-11T05:01:07;8.43;;;4.13;;
23866;SDS011;12114;53.404;-1.502;2023-03-11T05:03:33;12.38;;;4.03;;
23866;SDS011;12114;53.404;-1.502;2023-03-11T05:05:58;8.23;;;4.63;;
23866;SDS011;12114;53.404;-1.502;2023-03-11T05:08:24;13.80;;;5.38;;
23866;SDS011;12114;53.404;-1.502;2023-03-11T05:10:50;13.98;;;5.50;;
23866;SDS011;12114;53.404;-1.502;2023-03-11T05:13:17;12.30;;;6.47;;
23866;SDS011;12114;53.404;-1.502;2023-03-11T05:15:43;9.73;;;6.00;;
23866;SDS011;12114;53.404;-1.502;2023-03-11T05:18:09;13.98;;;6.43;;
23866;SDS011;12114;53.404;-1.502;2023-03-11T05:20:34;12.57;;;6.80;;
23866;SDS011;12114;53.404;-1.502;2023-03-11T05:22:59;15.30;;;6.78;;
23866;SDS011;12114;53.404;-1.502;2023-03-11T05:25:24;9.75;;;6.20;;
23866;SDS011;12114;53.404;-1.502;2023-03-11T05:27:50;9.18;;;5.80;;
23866;SDS011;12114;53.404;-1.502;2023-03-11T05:30:15;11.25;;;6.20;;
23866;SDS011;12114;53.404;-1.502;2023-03-11T05:32:40;12.13;;;6.50;;
23866;SDS011;12114;53.404;-1.502;2023-03-11T05:35:06;11.73;;;6.22;;
23866;SDS011;12114;53.404;-1.502;2023-03-11T05:37:31;12.45;;;5.95;;
23866;SDS011;12114;53.404;-1.502;2023-03-11T05:39:57;15.10;;;6.05;;
23866;SDS011;12114;53.404;-1.502;2023-03-11T05:42:22;11.07;;;6.05;;
23866;SDS011;12114;53.404;-1.502;2023-03-11T05:44:47;12.10;;;6.20;;
23866;SDS011;12114;53.404;-1.502;2023-03-11T05:47:12;13.93;;;7.00;;
23866;SDS011;12114;53.404;-1.502;2023-03-11T05:49:38;15.05;;;7.07;;
23866;SDS011;12114;53.404;-1.502;2023-03-11T05:52:03;13.85;;;6.28;;
23866;SDS011;12114;53.404;-1.502;2023-03-11T05:54:28;10.23;;;5.15;;
23866;SDS011;12114;53.404;-1.502;2023-03-11T05:56:54;10.73;;;4.30;;
23866;SDS011;12114;53.404;-1.502;2023-03-11T05:59:19;13.82;;;4.53;;
23866;SDS011;12114;53.404;-1.502;2023-03-11T06:01:45;10.27;;;3.97;;
23866;SDS011;12114;53.404;-1.502;2023-03-11T06:04:10;10.18;;;4.30;;
23866;SDS011;12114;53.404;-1.502;2023-03-11T06:06:37;9.35;;;4.13;;
23866;SDS011;12114;53.404;-1.502;2023-03-11T06:09:02;10.50;;;3.67;;
23866;SDS011;12114;53.404;-1.502;2023-03-11T06:11:28;7.72;;;4.20;;
23866;SDS011;12114;53.404;-1.502;2023-03-11T06:13:54;9.32;;;4.50;;
23866;SDS011;12114;53.404;-1.502;2023-03-11T06:16:20;9.60;;;5.82;;
23866;SDS011;12114;53.404;-1.502;2023-03-11T06:18:45;12.25;;;5.72;;
23866;SDS011;12114;53.404;-1.502;2023-03-11T06:21:14;11.05;;;6.18;;
23866;SDS011;12114;53.404;-1.502;2023-03-11T06:23:41;12.93;;;6.68;;
23866;SDS011;12114;53.404;-1.502;2023-03-11T06:26:06;12.23;;;6.47;;
23866;SDS011;12114;53.404;-1.502;2023-03-11T06:28:32;13.35;;;6.78;;
23866;SDS011;12114;53.404;-1.502;2023-03-11T06:31:08;12.57;;;6.80;;
23866;SDS011;12114;53.404;-1.502;2023-03-11T06:33:33;13.20;;;6.75;;
23866;SDS011;12114;53.404;-1.502;2023-03-11T06:35:59;10.48;;;6.75;;
23866;SDS011;12114;53.404;-1.502;2023-03-11T06:38:25;14.15;;;7.47;;
23866;SDS011;12114;53.404;-1.502;2023-03-11T06:40:50;13.85;;;6.88;;
23866;SDS011;12114;53.404;-1.502;2023-03-11T06:43:16;14.88;;;7.50;;
23866;SDS011;12114;53.404;-1.502;2023-03-11T06:45:41;13.52;;;6.22;;
23866;SDS011;12114;53.404;-1.502;2023-03-11T06:48:06;12.27;;;6.93;;
23866;SDS011;12114;53.404;-1.502;2023-03-11T06:50:31;15.35;;;6.63;;
23866;SDS011;12114;53.404;-1.502;2023-03-11T06:52:57;15.38;;;6.57;;
23866;SDS011;12114;53.404;-1.502;2023-03-11T06:55:22;13.73;;;7.03;;
23866;SDS011;12114;53.404;-1.502;2023-03-11T06:57:47;13.45;;;6.32;;
23866;SDS011;12114;53.404;-1.502;2023-03-11T07:00:13;14.20;;;6.75;;
23866;SDS011;12114;53.404;-1.502;2023-03-11T07:02:38;16.23;;;7.45;;
23866;SDS011;12114;53.404;-1.502;2023-03-11T07:05:03;12.95;;;7.03;;
23866;SDS011;12114;53.404;-1.502;2023-03-11T07:07:29;13.90;;;7.53;;
23866;SDS011;12114;53.404;-1.502;2023-03-11T07:09:55;16.67;;;7.88;;
23866;SDS011;12114;53.404;-1.502;2023-03-11T07:12:21;17.60;;;8.93;;
23866;SDS011;12114;53.404;-1.502;2023-03-11T07:14:52;16.85;;;9.02;;
23866;SDS011;12114;53.404;-1.502;2023-03-11T07:17:18;14.80;;;7.65;;
23866;SDS011;12114;53.404;-1.502;2023-03-11T07:19:43;15.07;;;7.53;;
23866;SDS011;12114;53.404;-1.502;2023-03-11T07:22:08;13.32;;;7.85;;
23866;SDS011;12114;53.404;-1.502;2023-03-11T07:24:34;13.07;;;7.00;;
23866;SDS011;12114;53.404;-1.502;2023-03-11T07:26:59;14.40;;;7.55;;
23866;SDS011;12114;53.404;-1.502;2023-03-11T07:29:25;13.75;;;7.68;;
23866;SDS011;12114;53.404;-1.502;2023-03-11T07:31:50;15.55;;;7.47;;
23866;SDS011;12114;53.404;-1.502;2023-03-11T07:34:15;17.27;;;8.02;;
23866;SDS011;12114;53.404;-1.502;2023-03-11T07:36:41;15.90;;;6.90;;
23866;SDS011;12114;53.404;-1.502;2023-03-11T07:39:06;19.55;;;7.45;;
23866;SDS011;12114;53.404;-1.502;2023-03-11T07:41:32;15.82;;;8.10;;
23866;SDS011;12114;53.404;-1.502;2023-03-11T07:43:58;16.00;;;7.20;;
23866;SDS011;12114;53.404;-1.502;2023-03-11T07:46:24;12.02;;;6.47;;
23866;SDS011;12114;53.404;-1.502;2023-03-11T07:48:50;15.50;;;5.10;;
23866;SDS011;12114;53.404;-1.502;2023-03-11T07:51:20;7.65;;;4.35;;
23866;SDS011;12114;53.404;-1.502;2023-03-11T07:53:46;9.65;;;4.00;;
23866;SDS011;12114;53.404;-1.502;2023-03-11T07:56:12;7.00;;;3.30;;
23866;SDS011;12114;53.404;-1.502;2023-03-11T07:58:37;7.03;;;3.03;;
23866;SDS011;12114;53.404;-1.502;2023-03-11T08:01:10;7.90;;;2.97;;
23866;SDS011;12114;53.404;-1.502;2023-03-11T08:03:36;6.75;;;2.97;;
23866;SDS011;12114;53.404;-1.502;2023-03-11T08:06:01;7.75;;;2.60;;
23866;SDS011;12114;53.404;-1.502;2023-03-11T08:08:27;5.22;;;3.15;;
23866;SDS011;12114;53.404;-1.502;2023-03-11T08:10:52;6.85;;;2.70;;
23866;SDS011;12114;53.404;-1.502;2023-03-11T08:13:21;8.50;;;2.55;;
23866;SDS011;12114;53.404;-1.502;2023-03-11T08:15:46;5.95;;;3.88;;
23866;SDS011;12114;53.404;-1.502;2023-03-11T08:18:11;8.63;;;3.83;;
23866;SDS011;12114;53.404;-1.502;2023-03-11T08:20:37;10.93;;;4.78;;
23866;SDS011;12114;53.404;-1.502;2023-03-11T08:23:02;13.65;;;4.70;;
23866;SDS011;12114;53.404;-1.502;2023-03-11T08:25:28;8.98;;;5.00;;
23866;SDS011;12114;53.404;-1.502;2023-03-11T08:27:53;8.27;;;4.82;;
23866;SDS011;12114;53.404;-1.502;2023-03-11T08:30:18;9.10;;;5.60;;
23866;SDS011;12114;53.404;-1.502;2023-03-11T08:32:44;9.10;;;4.93;;
23866;SDS011;12114;53.404;-1.502;2023-03-11T08:35:09;6.57;;;4.03;;
23866;SDS011;12114;53.404;-1.502;2023-03-11T08:37:34;10.38;;;5.10;;
23866;SDS011;12114;53.404;-1.502;2023-03-11T08:40:00;10.05;;;4.63;;
23866;SDS011;12114;53.404;-1.502;2023-03-11T08:42:25;5.03;;;2.70;;
23866;SDS011;12114;53.404;-1.502;2023-03-11T08:44:51;6.43;;;2.20;;
23866;SDS011;12114;53.404;-1.502;2023-03-11T08:47:16;5.05;;;1.88;;
23866;SDS011;12114;53.404;-1.502;2023-03-11T08:49:41;6.20;;;1.75;;
23866;SDS011;12114;53.404;-1.502;2023-03-11T08:52:06;15.38;;;2.05;;
23866;SDS011;12114;53.404;-1.502;2023-03-11T08:54:32;7.20;;;1.45;;
23866;SDS011;12114;53.404;-1.502;2023-03-11T08:56:57;6.10;;;1.63;;
23866;SDS011;12114;53.404;-1.502;2023-03-11T08:59:27;9.93;;;2.17;;
23866;SDS011;12114;53.404;-1.502;2023-03-11T09:01:52;5.05;;;1.60;;
23866;SDS011;12114;53.404;-1.502;2023-03-11T09:04:20;7.68;;;1.73;;
23866;SDS011;12114;53.404;-1.502;2023-03-11T09:06:46;6.57;;;1.77;;
23866;SDS011;12114;53.404;-1.502;2023-03-11T09:09:13;5.68;;;1.70;;
23866;SDS011;12114;53.404;-1.502;2023-03-11T09:11:38;6.40;;;1.42;;
23866;SDS011;12114;53.404;-1.502;2023-03-11T09:14:04;5.30;;;1.70;;
23866;SDS011;12114;53.404;-1.502;2023-03-11T09:16:29;9.40;;;1.70;;
23866;SDS011;12114;53.404;-1.502;2023-03-11T09:18:55;4.90;;;1.67;;
23866;SDS011;12114;53.404;-1.502;2023-03-11T09:21:20;4.93;;;1.60;;
23866;SDS011;12114;53.404;-1.502;2023-03-11T09:23:45;5.18;;;1.52;;
23866;SDS011;12114;53.404;-1.502;2023-03-11T09:26:11;4.97;;;1.50;;
23866;SDS011;12114;53.404;-1.502;2023-03-11T09:28:37;5.97;;;1.40;;
23866;SDS011;12114;53.404;-1.502;2023-03-11T09:31:02;12.57;;;1.63;;
23866;SDS011;12114;53.404;-1.502;2023-03-11T09:33:28;6.15;;;1.55;;
23866;SDS011;12114;53.404;-1.502;2023-03-11T09:35:53;7.22;;;2.00;;
23866;SDS011;12114;53.404;-1.502;2023-03-11T09:38:18;9.00;;;2.05;;
23866;SDS011;12114;53.404;-1.502;2023-03-11T09:45:54;7.05;;;1.60;;
23866;SDS011;12114;53.404;-1.502;2023-03-11T09:48:37;8.07;;;2.33;;
23866;SDS011;12114;53.404;-1.502;2023-03-11T09:51:07;8.23;;;1.80;;
23866;SDS011;12114;53.404;-1.502;2023-03-11T09:53:39;11.45;;;2.20;;
23866;SDS011;12114;53.404;-1.502;2023-03-11T09:56:06;7.72;;;1.75;;
23866;SDS011;12114;53.404;-1.502;2023-03-11T10:03:38;5.53;;;1.90;;
23866;SDS011;12114;53.404;-1.502;2023-03-11T10:06:17;5.43;;;1.67;;
23866;SDS011;12114;53.404;-1.502;2023-03-11T10:11:31;7.68;;;1.65;;
23866;SDS011;12114;53.404;-1.502;2023-03-11T10:16:28;3.47;;;1.17;;
23866;SDS011;12114;53.404;-1.502;2023-03-11T10:21:37;2.85;;;1.10;;
23866;SDS011;12114;53.404;-1.502;2023-03-11T10:26:57;3.53;;;1.10;;
23866;SDS011;12114;53.404;-1.502;2023-03-11T10:29:26;3.70;;;1.02;;
23866;SDS011;12114;53.404;-1.502;2023-03-11T10:32:12;5.35;;;1.30;;
23866;SDS011;12114;53.404;-1.502;2023-03-11T10:34:58;4.93;;;1.30;;
23866;SDS011;12114;53.404;-1.502;2023-03-11T10:37:27;3.45;;;1.30;;
23866;SDS011;12114;53.404;-1.502;2023-03-11T10:39:54;3.10;;;0.80;;
23866;SDS011;12114;53.404;-1.502;2023-03-11T10:42:21;3.53;;;1.13;;
23866;SDS011;12114;53.404;-1.502;2023-03-11T10:44:47;3.33;;;0.88;;
23866;SDS011;12114;53.404;-1.502;2023-03-11T10:47:19;3.33;;;1.20;;
23866;SDS011;12114;53.404;-1.502;2023-03-11T10:49:44;4.15;;;1.00;;
23866;SDS011;12114;53.404;-1.502;2023-03-11T10:52:10;6.72;;;1.30;;
23866;SDS011;12114;53.404;-1.502;2023-03-11T10:54:36;2.38;;;1.00;;
23866;SDS011;12114;53.404;-1.502;2023-03-11T10:57:04;3.65;;;1.25;;
23866;SDS011;12114;53.404;-1.502;2023-03-11T10:59:32;6.15;;;1.42;;
23866;SDS011;12114;53.404;-1.502;2023-03-11T11:02:02;2.88;;;1.30;;
23866;SDS011;12114;53.404;-1.502;2023-03-11T11:04:38;8.75;;;1.38;;
23866;SDS011;12114;53.404;-1.502;2023-03-11T11:07:18;5.57;;;1.30;;
23866;SDS011;12114;53.404;-1.502;2023-03-11T11:09:44;7.22;;;1.65;;
23866;SDS011;12114;53.404;-1.502;2023-03-11T11:12:13;5.65;;;1.40;;
23866;SDS011;12114;53.404;-1.502;2023-03-11T11:17:17;3.55;;;1.35;;
23866;SDS011;12114;53.404;-1.502;2023-03-11T11:19:44;4.70;;;1.00;;
23866;SDS011;12114;53.404;-1.502;2023-03-11T11:22:10;3.10;;;1.23;;
23866;SDS011;12114;53.404;-1.502;2023-03-11T11:24:41;8.68;;;1.55;;
23866;SDS011;12114;53.404;-1.502;2023-03-11T11:29:35;7.00;;;1.50;;
23866;SDS011;12114;53.404;-1.502;2023-03-11T11:34:49;6.07;;;1.70;;
23866;SDS011;12114;53.404;-1.502;2023-03-11T11:37:17;6.00;;;1.70;;
23866;SDS011;12114;53.404;-1.502;2023-03-11T11:39:43;4.50;;;1.73;;
23866;SDS011;12114;53.404;-1.502;2023-03-11T11:42:15;4.85;;;1.48;;
23866;SDS011;12114;53.404;-1.502;2023-03-11T11:44:41;5.55;;;1.65;;
23866;SDS011;12114;53.404;-1.502;2023-03-11T11:47:14;4.68;;;1.70;;
23866;SDS011;12114;53.404;-1.502;2023-03-11T11:49:49;4.72;;;1.50;;
23866;SDS011;12114;53.404;-1.502;2023-03-11T11:52:20;3.00;;;1.52;;
23866;SDS011;12114;53.404;-1.502;2023-03-11T11:57:22;5.60;;;1.48;;
23866;SDS011;12114;53.404;-1.502;2023-03-11T11:59:48;4.57;;;1.73;;
23866;SDS011;12114;53.404;-1.502;2023-03-11T12:10:32;7.68;;;2.03;;
23866;SDS011;12114;53.404;-1.502;2023-03-11T12:15:36;5.97;;;1.95;;
23866;SDS011;12114;53.404;-1.502;2023-03-11T12:18:03;3.95;;;1.95;;
23866;SDS011;12114;53.404;-1.502;2023-03-11T12:23:15;5.88;;;1.60;;
23866;SDS011;12114;53.404;-1.502;2023-03-11T12:25:51;4.95;;;1.50;;
23866;SDS011;12114;53.404;-1.502;2023-03-11T12:30:57;3.78;;;1.75;;
23866;SDS011;12114;53.404;-1.502;2023-03-11T12:35:53;6.00;;;2.45;;
23866;SDS011;12114;53.404;-1.502;2023-03-11T12:40:46;7.80;;;1.90;;
23866;SDS011;12114;53.404;-1.502;2023-03-11T12:45:49;5.40;;;2.40;;
23866;SDS011;12114;53.404;-1.502;2023-03-11T12:50:49;6.00;;;2.05;;
23866;SDS011;12114;53.404;-1.502;2023-03-11T12:53:15;6.18;;;2.25;;
23866;SDS011;12114;53.404;-1.502;2023-03-11T12:55:52;7.38;;;2.00;;
23866;SDS011;12114;53.404;-1.502;2023-03-11T13:09:10;7.43;;;2.38;;
23866;SDS011;12114;53.404;-1.502;2023-03-11T13:11:40;7.30;;;2.40;;
23866;SDS011;12114;53.404;-1.502;2023-03-11T13:16:39;6.72;;;2.25;;
23866;SDS011;12114;53.404;-1.502;2023-03-11T13:21:48;8.13;;;2.58;;
23866;SDS011;12114;53.404;-1.502;2023-03-11T13:34:56;5.40;;;2.20;;
23866;SDS011;12114;53.404;-1.502;2023-03-11T13:37:45;7.00;;;2.63;;
23866;SDS011;12114;53.404;-1.502;2023-03-11T13:42:59;7.13;;;2.80;;
23866;SDS011;12114;53.404;-1.502;2023-03-11T13:45:32;5.07;;;2.83;;
23866;SDS011;12114;53.404;-1.502;2023-03-11T13:50:35;7.82;;;3.15;;
23866;SDS011;12114;53.404;-1.502;2023-03-11T13:53:02;10.00;;;3.55;;
23866;SDS011;12114;53.404;-1.502;2023-03-11T13:55:34;6.57;;;3.08;;
23866;SDS011;12114;53.404;-1.502;2023-03-11T13:58:12;7.05;;;3.30;;
23866;SDS011;12114;53.404;-1.502;2023-03-11T14:00:38;8.20;;;3.30;;
23866;SDS011;12114;53.404;-1.502;2023-03-11T14:03:11;6.85;;;3.15;;
23866;SDS011;12114;53.404;-1.502;2023-03-11T14:05:37;8.63;;;3.33;;
23866;SDS011;12114;53.404;-1.502;2023-03-11T14:08:11;8.05;;;3.30;;
23866;SDS011;12114;53.404;-1.502;2023-03-11T14:10:36;11.63;;;3.42;;
23866;SDS011;12114;53.404;-1.502;2023-03-11T14:13:13;12.30;;;3.40;;
23866;SDS011;12114;53.404;-1.502;2023-03-11T14:15:52;6.90;;;3.60;;
23866;SDS011;12114;53.404;-1.502;2023-03-11T14:20:52;7.57;;;3.42;;
23866;SDS011;12114;53.404;-1.502;2023-03-11T14:23:18;5.65;;;2.80;;
23866;SDS011;12114;53.404;-1.502;2023-03-11T14:25:43;8.23;;;3.03;;
23866;SDS011;12114;53.404;-1.502;2023-03-11T14:28:13;7.78;;;3.20;;
23866;SDS011;12114;53.404;-1.502;2023-03-11T14:30:42;7.55;;;2.75;;
23866;SDS011;12114;53.404;-1.502;2023-03-11T14:33:19;6.65;;;3.10;;
23866;SDS011;12114;53.404;-1.502;2023-03-11T14:38:21;9.20;;;3.42;;
23866;SDS011;12114;53.404;-1.502;2023-03-11T14:40:57;7.65;;;3.83;;
23866;SDS011;12114;53.404;-1.502;2023-03-11T14:43:22;8.02;;;4.22;;
23866;SDS011;12114;53.404;-1.502;2023-03-11T14:45:48;8.13;;;2.95;;
23866;SDS011;12114;53.404;-1.502;2023-03-11T14:48:19;10.52;;;3.22;;
23866;SDS011;12114;53.404;-1.502;2023-03-11T14:50:47;8.32;;;3.30;;
23866;SDS011;12114;53.404;-1.502;2023-03-11T14:55:54;8.45;;;3.20;;
23866;SDS011;12114;53.404;-1.502;2023-03-11T14:58:23;6.78;;;3.10;;
23866;SDS011;12114;53.404;-1.502;2023-03-11T15:03:38;7.93;;;3.60;;
23866;SDS011;12114;53.404;-1.502;2023-03-11T15:08:33;8.52;;;3.40;;
23866;SDS011;12114;53.404;-1.502;2023-03-11T15:13:28;5.93;;;3.13;;
23866;SDS011;12114;53.404;-1.502;2023-03-11T15:15:57;6.97;;;3.72;;
23866;SDS011;12114;53.404;-1.502;2023-03-11T15:18:24;8.85;;;4.07;;
23866;SDS011;12114;53.404;-1.502;2023-03-11T15:21:06;11.27;;;4.97;;
23866;SDS011;12114;53.404;-1.502;2023-03-11T15:23:33;9.70;;;4.20;;
23866;SDS011;12114;53.404;-1.502;2023-03-11T15:25:58;12.07;;;5.60;;
23866;SDS011;12114;53.404;-1.502;2023-03-11T15:28:26;22.05;;;11.70;;
23866;SDS011;12114;53.404;-1.502;2023-03-11T15:33:36;13.00;;;6.45;;
23866;SDS011;12114;53.404;-1.502;2023-03-11T15:36:02;12.63;;;6.95;;
23866;SDS011;12114;53.404;-1.502;2023-03-11T15:38:27;8.48;;;4.25;;
23866;SDS011;12114;53.404;-1.502;2023-03-11T15:40:53;10.80;;;3.78;;
23866;SDS011;12114;53.404;-1.502;2023-03-11T15:43:21;6.70;;;3.17;;
23866;SDS011;12114;53.404;-1.502;2023-03-11T15:45:47;5.78;;;2.55;;
23866;SDS011;12114;53.404;-1.502;2023-03-11T15:48:13;5.63;;;3.08;;
23866;SDS011;12114;53.404;-1.502;2023-03-11T15:50:46;6.97;;;3.17;;
23866;SDS011;12114;53.404;-1.502;2023-03-11T15:53:12;8.40;;;2.80;;
23866;SDS011;12114;53.404;-1.502;2023-03-11T15:55:37;6.88;;;3.60;;
23866;SDS011;12114;53.404;-1.502;2023-03-11T15:58:04;5.70;;;2.95;;
23866;SDS011;12114;53.404;-1.502;2023-03-11T16:00:30;3.78;;;2.60;;
23866;SDS011;12114;53.404;-1.502;2023-03-11T16:02:56;5.40;;;2.20;;
23866;SDS011;12114;53.404;-1.502;2023-03-11T16:05:22;4.68;;;2.42;;
23866;SDS011;12114;53.404;-1.502;2023-03-11T16:07:48;4.75;;;2.47;;
23866;SDS011;12114;53.404;-1.502;2023-03-11T16:10:14;6.38;;;2.90;;
23866;SDS011;12114;53.404;-1.502;2023-03-11T16:12:40;7.38;;;3.67;;
23866;SDS011;12114;53.404;-1.502;2023-03-11T16:15:15;12.32;;;3.60;;
23866;SDS011;12114;53.404;-1.502;2023-03-11T16:17:42;8.77;;;4.30;;
23866;SDS011;12114;53.404;-1.502;2023-03-11T16:20:07;8.32;;;3.97;;
23866;SDS011;12114;53.404;-1.502;2023-03-11T16:22:33;9.55;;;4.30;;